createdAt,value
2023-05-15T00:00:44.172Z,10.45
2023-05-15T00:03:12.084Z,11.88
2023-05-15T00:05:39.077Z,11.25
2023-05-15T00:08:06.096Z,10.70
2023-05-15T00:10:32.459Z,12.00
2023-05-15T00:12:58.895Z,12.90
2023-05-15T00:15:25.705Z,12.70
2023-05-15T00:17:52.396Z,13.30
2023-05-15T00:20:18.921Z,12.38
2023-05-15T00:22:45.560Z,11.70
2023-05-15T00:25:11.912Z,12.38
2023-05-15T00:27:38.325Z,11.85
2023-05-15T00:30:05.865Z,12.10
2023-05-15T00:32:32.316Z,13.07
2023-05-15T00:34:58.725Z,12.40
2023-05-15T00:37:25.077Z,13.23
2023-05-15T00:39:51.519Z,12.57
2023-05-15T00:42:18.806Z,12.65
2023-05-15T00:44:45.900Z,12.90
2023-05-15T00:47:12.553Z,11.35
2023-05-15T00:49:39.508Z,12.48
2023-05-15T00:52:08.367Z,12.93
2023-05-15T00:54:35.301Z,12.35
2023-05-15T00:57:05.100Z,13.15
2023-05-15T00:59:32.573Z,12.30
2023-05-15T01:01:58.999Z,12.32
2023-05-15T01:04:25.558Z,12.60
2023-05-15T01:06:54.998Z,13.32
2023-05-15T01:09:25.406Z,13.63
2023-05-15T01:11:54.694Z,12.95
2023-05-15T01:14:21.271Z,13.10
2023-05-15T01:16:48.168Z,12.77
2023-05-15T01:19:14.941Z,13.27
2023-05-15T01:22:12.300Z,12.95
2023-05-15T01:25:03.555Z,12.60
2023-05-15T01:27:39.288Z,12.65
2023-05-15T01:30:22.104Z,12.98
2023-05-15T01:33:17.994Z,13.18
2023-05-15T01:35:55.698Z,12.82
2023-05-15T01:38:39.054Z,14.60
2023-05-15T01:41:16.933Z,13.80
2023-05-15T01:43:45.722Z,13.70
2023-05-15T01:46:15.560Z,13.27
2023-05-15T01:48:45.228Z,13.63
2023-05-15T01:51:14.762Z,13.18
2023-05-15T01:53:42.409Z,13.68
2023-05-15T01:56:10.182Z,14.18
2023-05-15T01:58:38.460Z,12.88
2023-05-15T02:01:05.921Z,13.63
2023-05-15T02:03:34.413Z,13.53
2023-05-15T02:06:03.313Z,13.43
2023-05-15T02:08:31.664Z,12.90
2023-05-15T02:11:00.816Z,14.40
2023-05-15T02:13:28.356Z,13.77
2023-05-15T02:15:54.821Z,13.65
2023-05-15T02:18:21.919Z,13.52
2023-05-15T02:20:48.306Z,13.80
2023-05-15T02:23:14.681Z,13.83
2023-05-15T02:26:07.782Z,13.30
2023-05-15T02:28:50.359Z,13.80
2023-05-15T02:31:35.828Z,13.60
2023-05-15T02:34:34.605Z,13.50
2023-05-15T02:37:01.876Z,14.23
2023-05-15T02:39:29.219Z,13.32
2023-05-15T02:41:57.243Z,13.98
2023-05-15T02:44:24.672Z,14.15
2023-05-15T02:46:53.582Z,14.02
2023-05-15T02:49:21.922Z,13.07
2023-05-15T02:51:48.321Z,13.38
2023-05-15T02:54:15.140Z,13.10
2023-05-15T02:56:41.613Z,13.45
2023-05-15T02:59:07.987Z,13.37
2023-05-15T03:01:34.418Z,13.57
2023-05-15T03:04:00.800Z,13.30
2023-05-15T03:06:27.366Z,13.93
2023-05-15T03:08:53.724Z,15.63
2023-05-15T03:11:21.293Z,15.30
2023-05-15T03:13:47.840Z,15.70
2023-05-15T03:16:14.188Z,16.38
2023-05-15T03:18:41.386Z,15.77
2023-05-15T03:21:07.802Z,15.88
2023-05-15T03:23:36.320Z,15.07
2023-05-15T03:26:04.054Z,15.65
2023-05-15T03:28:30.500Z,17.20
2023-05-15T03:30:56.928Z,17.10
2023-05-15T03:33:23.436Z,17.35
2023-05-15T03:35:51.167Z,16.73
2023-05-15T03:38:17.551Z,15.30
2023-05-15T03:40:44.093Z,17.25
2023-05-15T03:43:10.504Z,18.90
2023-05-15T03:45:36.897Z,18.63
2023-05-15T03:48:03.388Z,23.03
2023-05-15T03:50:30.658Z,24.57
2023-05-15T03:52:57.099Z,21.57
2023-05-15T03:55:23.662Z,19.80
2023-05-15T03:57:50.196Z,19.27
2023-05-15T04:00:17.739Z,18.30
2023-05-15T04:02:45.594Z,18.33
2023-05-15T04:05:12.101Z,17.40
2023-05-15T04:07:38.615Z,17.67
2023-05-15T04:10:05.935Z,18.73
2023-05-15T04:12:33.832Z,18.40
2023-05-15T04:15:21.407Z,16.33
2023-05-15T04:17:49.595Z,16.00
2023-05-15T04:20:18.684Z,15.97
2023-05-15T04:22:45.562Z,14.93
2023-05-15T04:25:14.555Z,14.57
2023-05-15T04:27:41.423Z,13.87
2023-05-15T04:30:08.978Z,13.63
2023-05-15T04:32:36.168Z,14.17
2023-05-15T04:35:12.247Z,14.57
2023-05-15T04:37:40.560Z,14.20
2023-05-15T04:40:08.182Z,13.53
2023-05-15T04:42:37.190Z,13.07
2023-05-15T04:45:05.418Z,13.67
2023-05-15T04:47:32.422Z,11.90
2023-05-15T04:49:58.809Z,13.13
2023-05-15T04:52:25.827Z,12.80
2023-05-15T04:54:53.490Z,12.73
2023-05-15T04:57:19.913Z,12.20
2023-05-15T04:59:46.267Z,12.57
2023-05-15T05:02:12.790Z,12.77
2023-05-15T05:04:43.913Z,12.37
2023-05-15T05:07:10.326Z,13.10
2023-05-15T19:11:49.396Z,5.80
2023-05-15T19:14:17.704Z,8.05
2023-05-15T19:16:46.215Z,8.18
2023-05-15T19:19:13.208Z,5.20
2023-05-15T19:21:39.739Z,5.88
2023-05-15T19:24:06.405Z,5.03
2023-05-15T19:26:33.015Z,4.68
2023-05-15T19:28:59.390Z,5.20
2023-05-15T19:31:31.280Z,4.90
2023-05-15T19:33:59.248Z,5.35
2023-05-15T19:36:25.867Z,5.15
2023-05-15T19:38:52.837Z,5.40
2023-05-15T19:41:19.334Z,4.80
2023-05-15T19:43:46.964Z,5.43
2023-05-15T19:46:13.788Z,5.32
2023-05-15T19:48:40.295Z,4.93
2023-05-15T19:51:07.039Z,4.70
2023-05-15T19:53:33.585Z,4.95
2023-05-15T19:55:59.991Z,4.57
2023-05-15T19:58:26.448Z,4.75
2023-05-15T20:00:53.968Z,4.45
2023-05-15T20:03:21.219Z,5.00
2023-05-15T20:05:48.153Z,4.85
2023-05-15T20:08:14.899Z,4.70
2023-05-15T20:10:41.294Z,5.07
2023-05-15T20:13:08.405Z,4.57
2023-05-15T20:15:35.092Z,4.35
2023-05-15T20:18:01.596Z,5.00
2023-05-15T20:20:28.201Z,4.80
2023-05-15T20:22:54.860Z,5.22
2023-05-15T20:25:22.929Z,5.00
2023-05-15T20:27:50.800Z,4.93
2023-05-15T20:30:17.488Z,5.18
2023-05-15T20:32:44.014Z,5.10
2023-05-15T20:35:11.083Z,4.88
2023-05-15T20:37:40.968Z,5.53
2023-05-15T20:40:08.083Z,5.10
2023-05-15T20:42:34.740Z,5.03
2023-05-15T20:45:01.161Z,5.18
2023-05-15T20:47:27.583Z,4.70
2023-05-15T20:49:53.983Z,4.60
2023-05-15T20:52:20.841Z,4.93
2023-05-15T20:54:47.248Z,4.90
2023-05-15T20:57:13.668Z,5.07
2023-05-15T20:59:40.086Z,4.60
2023-05-15T21:02:07.121Z,4.93
2023-05-15T21:04:33.550Z,5.03
2023-05-15T21:06:59.908Z,4.97
2023-05-15T21:09:26.274Z,4.97
2023-05-15T21:11:52.666Z,4.75
2023-05-15T21:14:19.830Z,4.97
2023-05-15T21:16:46.381Z,4.90
2023-05-15T21:19:12.784Z,5.13
2023-05-15T21:21:39.243Z,5.63
2023-05-15T21:24:06.120Z,5.68
2023-05-15T21:26:32.473Z,5.50
2023-05-15T21:29:02.346Z,5.30
2023-05-15T21:31:28.836Z,5.32
2023-05-15T21:33:55.627Z,5.43
2023-05-15T21:36:22.121Z,5.40
2023-05-15T21:38:48.508Z,5.55
2023-05-15T21:41:14.944Z,5.40
2023-05-15T21:43:41.310Z,5.40
2023-05-15T21:46:07.798Z,5.38
2023-05-15T21:48:34.349Z,5.78
2023-05-15T21:51:00.757Z,5.40
2023-05-15T21:53:27.186Z,5.35
2023-05-15T21:56:00.519Z,5.80
2023-05-15T21:58:27.005Z,6.38
2023-05-15T22:00:53.721Z,5.88
2023-05-15T22:03:20.858Z,5.82
2023-05-15T22:05:50.004Z,6.28
2023-05-15T22:08:16.643Z,5.97
2023-05-15T22:10:43.053Z,5.43
2023-05-15T22:13:09.880Z,5.75
2023-05-15T22:15:36.926Z,5.80
2023-05-15T22:18:05.590Z,6.35
2023-05-15T22:20:32.885Z,6.00
2023-05-15T22:22:59.397Z,6.32
2023-05-15T22:25:25.993Z,6.55
2023-05-15T22:27:52.516Z,6.72
2023-05-15T22:30:19.133Z,6.38
2023-05-15T22:32:45.573Z,7.03
2023-05-15T22:35:11.992Z,6.65
2023-05-15T22:37:38.404Z,6.75
2023-05-15T22:40:06.761Z,7.28
2023-05-15T22:42:33.585Z,6.95
2023-05-15T22:44:59.982Z,7.18
2023-05-15T22:47:28.314Z,6.95
2023-05-15T22:49:54.796Z,7.43
2023-05-15T22:52:21.365Z,6.90
2023-05-15T22:54:47.900Z,6.65
2023-05-15T22:57:14.302Z,7.25
2023-05-15T22:59:40.993Z,6.93
2023-05-15T23:02:07.378Z,7.65
2023-05-15T23:04:34.394Z,7.20
2023-05-15T23:07:00.790Z,7.30
2023-05-15T23:09:27.193Z,8.68
2023-05-15T23:11:53.586Z,7.95
2023-05-15T23:14:21.691Z,8.52
2023-05-15T23:16:49.769Z,8.25
2023-05-15T23:19:16.571Z,8.10
2023-05-15T23:21:43.011Z,8.55
2023-05-15T23:24:09.504Z,8.47
2023-05-15T23:26:35.901Z,8.10
2023-05-15T23:29:02.575Z,8.00
2023-05-15T23:31:29.053Z,9.17
2023-05-15T23:33:55.450Z,8.83
2023-05-15T23:36:22.027Z,8.45
2023-05-15T23:38:48.457Z,7.90
2023-05-15T23:41:14.844Z,8.40
2023-05-15T23:43:41.216Z,9.23
2023-05-15T23:46:07.614Z,8.48
2023-05-15T23:48:34.095Z,8.48
2023-05-15T23:51:00.621Z,8.77
2023-05-15T23:53:27.005Z,9.10
2023-05-15T23:55:53.372Z,9.83
2023-05-15T23:58:19.777Z,9.63
